Alden, New York
Current Conditions -  °F | °C
As of 4:54 AM on Monday 20 Oct 2014 (Local Time) from KBUF Reporting Station
Overcast Overcast  
Wind Chill: 41°   Ceiling: 3300
Heat Index: 44°   Visibility: 10mi
Dew Point: 37°   Wind: 6mph
Humidity: 76%   Direction: 150°SSE
Pressure: 29.96"   Gusts: NA
Location:  42.9°N, 78.49°W
Report Text: KBUF 200854Z 15005KT 10SM FEW023 BKN033 OVC120 07/03 A2996 RMK AO2 SLP148 T00670028 58012
Loading
Personal Weather Stations






























Interactive Weather Map
Tropical Storm Tracking
New forecast layout! Learn more

10-Day Weather Forecast

Advertisements
Track Severe Weather on mobile